Latest Weather Observations for Green Cape

IDN60801

Issued at 9:35 am EST Friday 22 August 2014 (issued every 30 minutes, with the page automatically refreshed every 10 minutes)

About weather observations | Map of weather stations | Latest weather observations for NSW | Other Formats
Station Details ID: 069137 Name: GREEN CAPE AWS Lat: -37.26 Lon: 150.05 Height: 19.4 m
Data from the previous 72 hours. | See also: Recent months at Green Cape
Date/Time
EST
Temp
°C
App
Temp
°C
Dew
Point
Rel
Hum
%
Delta-T
°C
Wind Press
QNH
hPa
Press
MSL
hPa
Rain
since 9 am
mm
Dir
 
Spd
km/h
Gust
km/h
Spd
kts
Gust
kts
22/09:30am 12.3 10.5 11.0 92 0.7 WNW 11 13 6 7 1033.5 - 0.0
22/09:00am 11.6 10.1 10.5 93 0.6 W 9 13 5 7 1033.5 1033.6 2.4
22/08:30am 10.8 7.9 9.7 93 0.6 W 15 17 8 9 1033.3 - 2.4
22/08:00am 10.5 7.9 9.4 93 0.5 W 13 15 7 8 1033.1 1033.2 2.4
22/07:30am 10.4 8.2 9.3 93 0.5 WNW 11 13 6 7 1032.9 - 2.4
22/07:00am 10.2 7.5 9.1 93 0.5 W 13 17 7 9 1032.5 1032.6 2.4
22/06:30am 10.2 7.2 9.1 93 0.5 W 15 15 8 8 1032.2 - 2.2
22/06:00am 10.4 8.2 9.3 93 0.5 WNW 11 17 6 9 1032.0 1032.1 2.2
22/05:30am 10.5 8.0 9.6 94 0.5 WNW 13 17 7 9 1031.9 - 2.2
22/05:00am 10.4 7.4 9.3 93 0.5 W 15 17 8 9 1031.7 1031.7 2.2
22/04:30am 10.7 7.8 9.6 93 0.6 W 15 17 8 9 1031.6 - 2.2
22/04:00am 10.7 7.8 9.5 92 0.6 W 15 17 8 9 1031.5 1031.5 2.2
22/03:30am 11.1 9.0 9.7 91 0.7 W 11 13 6 7 1031.4 - 2.2
22/03:00am 11.6 10.5 9.9 89 0.9 NW 6 9 3 5 1031.4 1031.4 2.2
22/02:30am 11.7 10.0 9.8 88 1.0 WNW 9 13 5 7 1031.4 - 2.2
22/02:00am 12.7 11.7 10.4 86 1.2 NNE 6 9 3 5 1031.8 1031.8 2.0
22/01:30am 13.1 8.0 10.6 85 1.3 ENE 28 35 15 19 1031.8 - 2.0
22/01:17am 13.0 8.0 11.1 88 1.0 ENE 28 35 15 19 1031.7 - 2.0
22/01:00am 12.0 11.3 10.1 88 1.0 N 4 9 2 5 1032.1 1032.2 2.0
22/12:30am 12.1 11.5 10.3 89 0.9 N 4 7 2 4 1032.1 - 2.0
22/12:00am 12.0 10.8 10.4 90 0.8 W 7 13 4 7 1032.1 1032.2 2.0
 
Date/Time
EST
Temp
°C
App
Temp
°C
Dew
Point
Rel
Hum
%
Delta-T
°C
Wind Press
QNH
hPa
Press
MSL
hPa
Rain
since 9 am
mm
Dir
 
Spd
km/h
Gust
km/h
Spd
kts
Gust
kts
21/11:30pm 12.2 10.6 10.3 88 1.0 W 9 13 5 7 1032.2 - 2.0
21/11:00pm 12.7 12.0 10.2 85 1.3 WNW 4 7 2 4 1032.2 1032.3 2.0
21/10:30pm 13.5 12.6 10.5 82 1.6 NE 6 9 3 5 1032.3 - 2.0
21/10:00pm 13.5 12.4 9.9 79 1.8 ENE 6 9 3 5 1032.2 1032.3 2.0
21/09:30pm 13.7 12.1 10.1 79 1.9 E 9 11 5 6 1032.2 - 2.0
21/09:00pm 13.4 11.4 10.2 81 1.6 NE 11 13 6 7 1032.1 1032.2 2.0
21/08:30pm 13.8 11.2 10.6 81 1.7 E 15 19 8 10 1032.0 - 2.0
21/08:00pm 13.9 11.6 10.5 80 1.8 E 13 15 7 8 1031.8 1031.8 2.0
21/07:30pm 13.7 11.0 10.5 81 1.7 E 15 17 8 9 1031.6 - 2.0
21/07:00pm 13.9 10.5 11.1 83 1.5 E 20 24 11 13 1031.3 1031.3 2.0
21/06:30pm 13.4 10.9 9.8 79 1.8 E 13 15 7 8 1031.1 - 2.0
21/06:00pm 13.6 11.4 10.8 83 1.5 E 13 17 7 9 1030.8 1030.8 2.0
21/05:30pm 13.2 12.3 10.7 85 1.3 E 6 13 3 7 1030.7 - 2.0
21/05:00pm 14.3 14.5 10.5 78 2.0 CALM 0 4 0 2 1030.2 1030.2 0.2
21/04:30pm 14.7 10.7 10.3 75 2.3 SSE 22 28 12 15 1030.0 - 0.2
21/04:00pm 15.2 11.8 11.2 77 2.1 S 20 22 11 12 1029.9 1029.9 0.2
21/03:30pm 15.7 12.9 11.5 76 2.3 S 17 19 9 10 1029.7 - 0.2
21/03:00pm 16.2 13.9 11.6 74 2.5 S 15 19 8 10 1029.7 1029.7 0.2
21/02:30pm 15.0 11.7 10.8 76 2.2 S 19 22 10 12 1029.8 - 0.2
21/02:00pm 16.4 13.0 11.3 72 2.7 S 20 24 11 13 1029.8 1029.8 0.2
21/01:30pm 16.0 12.5 10.3 69 3.0 S 19 22 10 12 1029.9 - 0.2
21/01:00pm 17.3 15.0 11.6 69 3.1 S 15 19 8 10 1030.1 1030.1 0.2
21/12:30pm 16.0 13.0 10.7 71 2.8 S 17 19 9 10 1030.2 - 0.0
21/12:00pm 15.9 13.3 10.7 71 2.7 S 15 17 8 9 1030.6 1030.6 0.0
21/11:30am 15.7 13.4 10.5 71 2.7 SSW 13 17 7 9 1030.8 - 0.0
21/11:00am 15.4 13.3 11.2 76 2.2 SW 13 15 7 8 1031.1 1031.1 0.0
21/10:30am 13.8 11.4 10.2 79 1.9 WSW 13 17 7 9 1031.2 - 0.0
21/10:00am 13.5 10.7 10.1 80 1.7 WSW 15 19 8 10 1031.2 1031.2 0.0
21/09:30am 12.9 9.3 9.7 81 1.6 SW 19 22 10 12 1031.1 - 0.0
21/09:00am 12.2 9.1 9.0 81 1.6 W 15 20 8 11 1031.1 1031.1 0.0
21/08:30am 11.7 7.9 8.9 83 1.4 W 19 24 10 13 1030.9 - 0.0
21/08:00am 11.1 7.0 8.8 86 1.1 W 20 22 11 12 1030.6 1030.6 0.0
21/07:30am 10.8 6.4 8.9 88 0.9 W 22 26 12 14 1030.3 - 0.0
21/07:00am 10.5 6.0 8.6 88 0.9 W 22 26 12 14 1030.0 1030.0 0.0
21/06:30am 10.3 6.1 8.4 88 0.9 W 20 24 11 13 1029.7 - 0.0
21/06:00am 10.4 5.8 8.3 87 1.0 W 22 24 12 13 1029.4 1029.4 0.0
21/05:30am 10.7 6.4 7.8 82 1.4 W 20 26 11 14 1029.2 - 0.0
21/05:00am 10.5 6.1 7.6 82 1.4 W 20 24 11 13 1029.0 1029.0 0.0
21/04:30am 10.4 6.0 7.5 82 1.4 W 20 24 11 13 1028.9 - 0.0
21/04:00am 10.4 5.6 7.5 82 1.4 W 22 24 12 13 1028.9 1028.9 0.0
21/03:30am 10.3 5.5 7.4 82 1.4 W 22 26 12 14 1028.6 - 0.0
21/03:00am 10.1 5.3 7.2 82 1.4 W 22 26 12 14 1028.4 1028.4 0.0
21/02:30am 10.4 5.6 7.5 82 1.4 W 22 30 12 16 1028.4 - 0.0
21/02:00am 10.4 5.6 7.3 81 1.5 W 22 28 12 15 1028.5 1028.5 0.0
21/01:30am 10.6 5.5 7.5 81 1.5 W 24 28 13 15 1028.5 - 0.0
21/01:00am 10.6 5.5 7.5 81 1.5 W 24 28 13 15 1028.5 1028.5 0.0
21/12:30am 10.6 5.5 7.5 81 1.5 W 24 28 13 15 1028.6 - 0.0
21/12:00am 10.5 5.3 7.2 80 1.6 W 24 30 13 16 1028.6 1028.6 0.0
 
Date/Time
EST
Temp
°C
App
Temp
°C
Dew
Point
Rel
Hum
%
Delta-T
°C
Wind Press
QNH
hPa
Press
MSL
hPa
Rain
since 9 am
mm
Dir
 
Spd
km/h
Gust
km/h
Spd
kts
Gust
kts
20/11:30pm 10.5 5.3 7.2 80 1.6 W 24 30 13 16 1028.5 - 0.0
20/11:00pm 11.1 6.3 7.4 78 1.8 W 22 28 12 15 1028.3 1028.3 0.0
20/10:30pm 11.2 6.4 7.5 78 1.8 W 22 26 12 14 1028.3 - 0.0
20/10:00pm 11.6 6.5 7.7 77 1.9 W 24 28 13 15 1028.4 1028.4 0.0
20/09:30pm 11.9 7.7 7.6 75 2.1 W 19 24 10 13 1028.5 - 0.0
20/09:00pm 12.4 8.1 7.9 74 2.2 WSW 20 22 11 12 1028.4 1028.4 0.0
20/08:30pm 12.6 8.3 7.9 73 2.3 WSW 20 26 11 14 1028.3 - 0.0
20/08:00pm 12.5 5.9 7.6 72 2.4 SW 32 37 17 20 1027.9 1027.9 0.0
20/07:30pm 12.4 5.2 7.5 72 2.4 SW 35 41 19 22 1027.7 - 0.0
20/07:00pm 12.4 5.2 7.5 72 2.4 SW 35 41 19 22 1027.5 1027.5 0.0
20/06:30pm 12.4 6.0 8.7 78 1.8 SSW 32 35 17 19 1027.2 - 0.0
20/06:00pm 12.3 5.1 9.3 82 1.5 SSW 37 43 20 23 1026.8 1026.8 0.0
20/05:30pm 12.7 5.2 8.0 73 2.3 SSW 37 44 20 24 1026.4 - 0.0
20/05:00pm 12.9 5.7 7.8 71 2.5 S 35 39 19 21 1026.1 1026.1 0.0
20/04:30pm 13.3 7.1 7.7 69 2.8 S 30 35 16 19 1026.0 - 0.0
20/04:00pm 13.7 8.9 7.2 65 3.2 SSW 22 28 12 15 1025.8 1025.8 0.0
20/03:30pm 13.9 9.5 7.2 64 3.3 SSW 20 24 11 13 1025.7 - 0.0
20/03:00pm 14.3 10.0 7.1 62 3.5 SSW 19 22 10 12 1025.3 1025.3 0.0
20/02:30pm 14.5 10.1 7.3 62 3.5 SW 20 28 11 15 1025.1 - 0.0
20/02:00pm 14.5 11.0 7.1 61 3.6 SSW 15 19 8 10 1025.1 1025.1 0.0
20/01:30pm 14.5 10.0 6.8 60 3.7 SSW 20 26 11 14 1025.0 - 0.0
20/01:00pm 14.6 11.3 6.4 58 3.9 SSW 13 19 7 10 1025.2 1025.2 0.0
20/12:30pm 14.1 10.7 5.7 57 4.0 SSW 13 17 7 9 1025.5 - 0.0
20/12:00pm 14.2 8.7 5.8 57 4.0 WSW 24 28 13 15 1025.7 1025.7 0.0
20/11:30am 13.7 7.8 5.8 59 3.7 SW 26 33 14 18 1025.9 - 0.0
20/11:00am 13.5 6.8 5.7 59 3.7 WSW 30 35 16 19 1026.0 1026.0 0.0
20/10:30am 13.1 6.7 6.9 66 3.0 WSW 30 37 16 20 1026.0 - 0.0
20/10:00am 12.7 5.3 6.7 67 2.9 WSW 35 41 19 22 1025.7 1025.7 0.0
20/09:30am 12.5 4.3 6.5 67 2.9 WSW 39 48 21 26 1025.5 - 0.0
20/09:00am 12.1 4.6 6.4 68 2.7 WSW 35 43 19 23 1025.4 1025.4 0.2
20/08:30am 11.6 5.6 5.5 66 2.8 WSW 26 35 14 19 1025.5 - 0.2
20/08:00am 11.6 4.5 5.3 65 2.9 WSW 32 37 17 20 1025.3 1025.3 0.2
20/07:30am 11.5 5.6 5.6 67 2.7 WSW 26 32 14 17 1025.0 - 0.2
20/07:00am 10.7 7.3 5.9 72 2.2 W 13 17 7 9 1024.8 1024.8 0.2
20/06:30am 10.5 5.9 5.7 72 2.2 W 19 22 10 12 1024.6 - 0.2
20/06:00am 10.6 5.8 5.6 71 2.3 W 20 24 11 13 1024.3 1024.3 0.2
20/05:30am 10.9 5.4 5.7 70 2.4 W 24 30 13 16 1024.1 - 0.2
20/05:00am 11.2 4.5 5.7 69 2.5 W 30 33 16 18 1024.1 1024.1 0.2
20/04:30am 11.3 5.8 6.0 70 2.5 WSW 24 30 13 16 1023.9 - 0.2
20/04:00am 11.3 5.4 6.0 70 2.5 WSW 26 32 14 17 1023.7 1023.7 0.2
20/03:30am 11.5 4.4 6.6 72 2.3 WSW 33 39 18 21 1023.4 - 0.2
20/03:00am 11.3 4.3 6.2 71 2.4 WSW 32 37 17 20 1023.4 1023.4 0.2
20/02:30am 11.2 4.1 6.5 73 2.2 WSW 33 37 18 20 1023.4 - 0.2
20/02:00am 11.3 4.9 6.8 74 2.1 WSW 30 37 16 20 1023.7 1023.7 0.2
20/01:30am 11.5 3.0 7.0 74 2.1 WSW 41 48 22 26 1023.5 - 0.2
20/01:00am 11.6 3.5 6.9 73 2.2 WSW 39 46 21 25 1023.3 1023.3 0.2
20/12:30am 11.6 4.7 7.3 75 2.1 WSW 33 41 18 22 1023.3 - 0.2
20/12:00am 11.6 4.9 7.3 75 2.1 WSW 32 39 17 21 1023.4 1023.4 0.2
 
Date/Time
EST
Temp
°C
App
Temp
°C
Dew
Point
Rel
Hum
%
Delta-T
°C
Wind Press
QNH
hPa
Press
MSL
hPa
Rain
since 9 am
mm
Dir
 
Spd
km/h
Gust
km/h
Spd
kts
Gust
kts
19/11:30pm 12.0 5.4 7.7 75 2.1 WSW 32 39 17 21 1023.4 - 0.2
19/11:00pm 11.8 6.0 7.9 77 1.9 WSW 28 33 15 18 1023.4 1023.4 0.2
19/10:30pm 11.8 5.8 8.5 80 1.6 WSW 30 33 16 18 1023.3 - 0.2
19/10:00pm 11.8 6.2 8.8 82 1.5 WSW 28 33 15 18 1023.3 1023.3 0.2
19/09:30pm 11.7 6.1 8.7 82 1.5 WSW 28 32 15 17 1023.1 - 0.0
19/09:00pm 12.4 7.1 8.3 76 2.0 WSW 26 33 14 18 1023.1 1023.1 0.0
19/08:30pm 12.8 6.4 8.5 75 2.1 SW 32 39 17 21 1023.0 - 0.0
19/08:00pm 12.8 6.3 8.3 74 2.2 SSW 32 41 17 22 1022.8 1022.8 0.0
19/07:30pm 13.3 6.2 8.2 71 2.5 SSW 35 41 19 22 1022.4 - 0.0
19/07:00pm 13.1 4.9 8.2 72 2.4 S 41 48 22 26 1022.1 1022.1 0.0
19/06:30pm 13.2 5.1 7.2 67 2.9 SSW 39 46 21 25 1022.0 - 0.0
19/06:00pm 13.3 4.9 7.3 67 2.9 SSW 41 50 22 27 1021.6 1021.6 0.0
19/05:30pm 13.2 4.8 7.2 67 2.9 SSW 41 46 22 25 1021.4 - 0.0
19/05:00pm 13.2 4.7 7.0 66 3.0 SSW 41 50 22 27 1021.1 1021.1 0.0
19/04:30pm 13.2 3.3 6.8 65 3.1 SSW 48 54 26 29 1020.7 - 0.0
19/04:00pm 13.4 4.7 7.8 69 2.7 SSW 43 50 23 27 1020.5 1020.5 0.0
19/03:30pm 13.4 4.8 8.3 71 2.5 S 43 52 23 28 1020.4 - 0.0
19/03:00pm 13.7 4.9 8.1 69 2.8 S 44 52 24 28 1020.3 1020.3 0.0
19/02:30pm 14.0 4.3 7.3 64 3.3 SSW 48 54 26 29 1020.2 - 0.0
19/02:00pm 13.5 2.9 6.8 64 3.2 SSW 52 61 28 33 1019.8 1019.8 0.0
19/01:30pm 13.6 4.0 7.8 68 2.9 S 48 57 26 31 1019.5 - 0.0
19/01:00pm 13.7 4.2 8.5 71 2.6 S 48 57 26 31 1019.5 1019.5 0.0
19/12:30pm 14.6 5.9 8.5 67 3.1 SSW 44 52 24 28 1019.7 - 0.0
19/12:00pm 14.3 5.1 8.0 66 3.1 SSW 46 54 25 29 1019.9 1019.9 0.0
19/11:30am 14.4 4.9 8.4 67 3.0 SSW 48 54 26 29 1020.0 - 0.0
19/11:00am 14.4 4.7 9.0 70 2.7 SSW 50 57 27 31 1020.2 1020.2 0.0
19/10:30am 14.3 5.5 9.5 73 2.5 S 46 56 25 30 1020.1 - 0.0
19/10:00am 14.3 5.2 9.9 75 2.3 SSW 48 57 26 31 1019.8 1019.8 0.0

Other Formats:

Comma delimited format used in spreadsheet applications
http://www.bom.gov.au/fwo/IDN60801/IDN60801.94934.axf

JavaScript Object Notation format (JSON) in row-major order
http://www.bom.gov.au/fwo/IDN60801/IDN60801.94934.json